NCAR-RAP Real-Time Weather Data

Output produced by METARs form (25 January 2022  00:04 UTC)
found at http://weather.rap.ucar.edu/surface/
 
KLIT 242353Z 23013KT 10SM SCT120 BKN210 14/04 A2982 RMK AO2 SLP102 T01440044 10200 20144 51014
KLIT 242253Z 22010KT 10SM SCT120 BKN180 16/04 A2982 RMK AO2 SLP099 T01610039
KLIT 242153Z 22014KT 10SM SCT120 BKN250 17/03 A2980 RMK AO2 SLP094 T01720028
KLIT 242053Z 23012G18KT 10SM FEW120 BKN250 20/02 A2978 RMK AO2 SLP086 T02000017 56024
KLIT 241953Z 20010G16KT 10SM FEW120 FEW250 20/01 A2979 RMK AO2 SLP089 T02000011
KLIT 241853Z 25008KT 210V280 10SM SCT250 19/01 A2981 RMK AO2 SLP095 T01890006
KLIT 241753Z 23008KT 10SM FEW250 18/01 A2985 RMK AO2 SLP111 T01780011 10178 20000 58022
KLIT 241653Z 26010KT 10SM FEW250 14/01 A2990 RMK AO2 SLP126 T01440006
KLIT 241553Z 24008KT 10SM FEW250 10/00 A2991 RMK AO2 SLP133 T01000000